Aviation Digital Data Service (ADDS)

Output produced by METARs form (1553 UTC 23 September 2020)
found at http://aviationweather.gov/metar/data/
 
KIAH 231445Z 2315/2418 33011G18KT 4SM BR VCSH OVC006 
     TEMPO 2315/2318 2SM -RA BR OVC004 
     FM240000 36010KT P6SM OVC015 
     FM240600 34006KT P6SM BKN015 BKN050 
     FM241500 35008KT P6SM SCT015